Cenka — TCTG5 — position and weather

sailwx.info

Track history (hours):
 
Tides and Currents Weather Stations Pressure Air Temp Water Temp Dewpoint Dewpoint Depression Visibility Wind Speed Wind Dir Waves Ship Positions

Cenka

Last reported at 2016-Jun-27 18:27 UTC. Time now 2016-Jun-27 20:33 UTC.
Position N 46°21' E 030°39'.

Length 150 m; draft 4.9 m.

Type: Passenger vessel. MMSI: 271002610.

Date/timePositionNaut miles runAvg speedWind from/ knotsBaromVisibWave heightAir tempDewpointWater temp
2016-Jun-27 18:27N 46°21' E 030°39'0 0.0
2016-Jun-27 17:31N 46°21' E 030°39'0 0.0
2016-Jun-27 16:31N 46°21' E 030°39'0 0.0
2016-Jun-27 15:34N 46°21' E 030°39'0 0.0
2016-Jun-27 14:21N 46°21' E 030°39'0 0.0
2016-Jun-27 13:33N 46°21' E 030°39'0 0.0
2016-Jun-27 12:30N 46°21' E 030°39'0 0.0
2016-Jun-27 11:30N 46°21' E 030°39'0 0.0
2016-Jun-27 10:33N 46°21' E 030°39'0 0.0
2016-Jun-27 09:30N 46°21' E 030°39'0 0.0
2016-Jun-27 08:33N 46°21' E 030°39'0 0.0
2016-Jun-27 07:33N 46°21' E 030°39'0 0.0
2016-Jun-27 06:32N 46°21' E 030°39'0 0.1
2016-Jun-27 05:29N 46°21' E 030°39'0 0.0
2016-Jun-27 04:32N 46°21' E 030°39'3 3.4
2016-Jun-27 03:33N 46°18' E 030°43'1312.6
2016-Jun-27 02:34N 46°07' E 030°49'1413.9
2016-Jun-27 01:33N 45°53' E 030°53'1414.0
2016-Jun-27 00:34N 45°39' E 030°56'23813.9
2016-Jun-26 07:27N 41°44' E 031°43'269 7.9
2016-Jun-24 21:32N 46°09' E 030°48'13 1.8
2016-Jun-24 14:29N 46°21' E 030°39'6 6.3
2016-Jun-24 13:34N 46°16' E 030°45'1414.0
2016-Jun-24 12:33N 46°03' E 030°51'1414.1
2016-Jun-24 11:33N 45°49' E 030°56'1414.2
2016-Jun-24 10:33N 45°35' E 030°58'1414.2
2016-Jun-24 09:33N 45°21' E 031°01'1414.1
2016-Jun-24 08:33N 45°07' E 031°04'1414.1
2016-Jun-24 07:34N 44°53' E 031°07'4314.1
2016-Jun-24 04:33N 44°11' E 031°15'1414.3
2016-Jun-24 03:33N 43°57' E 031°18'1614.3
2016-Jun-24 02:25N 43°41' E 031°21'1214.1
2016-Jun-24 01:33N 43°29' E 031°24'  
2016-Jun-21 20:31N 45°29' E 030°59'5310.7
2016-Jun-21 15:30N 46°21' E 030°39'0 0.0
2016-Jun-21 14:33N 46°21' E 030°39'0 0.0
2016-Jun-21 13:33N 46°21' E 030°39'0 0.0
2016-Jun-21 12:33N 46°21' E 030°39'0 0.0
2016-Jun-21 11:21N 46°21' E 030°39'0 0.0
2016-Jun-21 10:33N 46°21' E 030°39'0 0.0
2016-Jun-21 09:30N 46°21' E 030°39'0 0.0
2016-Jun-21 08:33N 46°21' E 030°39'0 0.0
2016-Jun-21 07:33N 46°21' E 030°39'0 0.0
2016-Jun-21 04:24N 46°21' E 030°39'0 0.0
2016-Jun-21 03:33N 46°21' E 030°39'0 0.0
2016-Jun-21 02:33N 46°21' E 030°39'0 0.0
2016-Jun-21 01:33N 46°21' E 030°39'0 0.0
2016-Jun-21 00:30N 46°21' E 030°39'0 0.0
2016-Jun-20 23:33N 46°21' E 030°39'0 0.0
2016-Jun-20 22:30N 46°21' E 030°39'0 0.0
2016-Jun-20 21:30N 46°21' E 030°39'0 0.0
2016-Jun-20 20:33N 46°21' E 030°39'0 0.0
2016-Jun-20 19:30N 46°21' E 030°39'0 0.0
2016-Jun-20 18:33N 46°21' E 030°39'0 0.0
2016-Jun-20 17:33N 46°21' E 030°39'0 0.0
2016-Jun-20 16:33N 46°21' E 030°39'0 0.3
2016-Jun-20 15:33N 46°20' E 030°39'4 4.3
2016-Jun-20 14:34N 46°19' E 030°45'4 4.1
2016-Jun-20 13:33N 46°14' E 030°44'0 0.0
2016-Jun-20 12:32N 46°14' E 030°44'0 0.0
2016-Jun-20 11:33N 46°14' E 030°44'0 0.0
2016-Jun-20 10:33N 46°14' E 030°44'0 0.0
2016-Jun-20 09:33N 46°14' E 030°44'0 0.0
2016-Jun-20 08:31N 46°14' E 030°44'3 2.8
2016-Jun-20 07:33N 46°12' E 030°46'1413.5
2016-Jun-20 06:33N 45°60' E 030°53'1413.7
2016-Jun-20 05:33N 45°46' E 030°57'1413.9
2016-Jun-20 04:33N 45°32' E 031°01'  
2016-Jun-17 22:05N 45°45' E 030°56'713.7
2016-Jun-17 21:33N 45°52' E 030°54'1413.8
2016-Jun-17 20:33N 46°06' E 030°49'1313.4
2016-Jun-17 19:33N 46°18' E 030°43'  
Track history (hours):
 
Tides and Currents Weather Stations Pressure Air Temp Water Temp Dewpoint Dewpoint Depression Visibility Wind Speed Wind Dir Waves Ship Positions

Cenka

Last reported at 2016-Jun-27 18:27 UTC. Time now 2016-Jun-27 20:33 UTC.
Position N 46°21' E 030°39'.

Length 150 m; draft 4.9 m.

Type: Passenger vessel. MMSI: 271002610.

Date/timePositionNaut miles runAvg speedWind from/ knotsBaromVisibWave heightAir tempDewpointWater temp
2016-Jun-27 18:27N 46°21' E 030°39'0 0.0
2016-Jun-27 17:31N 46°21' E 030°39'0 0.0
2016-Jun-27 16:31N 46°21' E 030°39'0 0.0
2016-Jun-27 15:34N 46°21' E 030°39'0 0.0
2016-Jun-27 14:21N 46°21' E 030°39'0 0.0
2016-Jun-27 13:33N 46°21' E 030°39'0 0.0
2016-Jun-27 12:30N 46°21' E 030°39'0 0.0
2016-Jun-27 11:30N 46°21' E 030°39'0 0.0
2016-Jun-27 10:33N 46°21' E 030°39'0 0.0
2016-Jun-27 09:30N 46°21' E 030°39'0 0.0
2016-Jun-27 08:33N 46°21' E 030°39'0 0.0
2016-Jun-27 07:33N 46°21' E 030°39'0 0.0
2016-Jun-27 06:32N 46°21' E 030°39'0 0.1
2016-Jun-27 05:29N 46°21' E 030°39'0 0.0
2016-Jun-27 04:32N 46°21' E 030°39'3 3.4
2016-Jun-27 03:33N 46°18' E 030°43'1312.6
2016-Jun-27 02:34N 46°07' E 030°49'1413.9
2016-Jun-27 01:33N 45°53' E 030°53'1414.0
2016-Jun-27 00:34N 45°39' E 030°56'23813.9
2016-Jun-26 07:27N 41°44' E 031°43'269 7.9
2016-Jun-24 21:32N 46°09' E 030°48'13 1.8
2016-Jun-24 14:29N 46°21' E 030°39'6 6.3
2016-Jun-24 13:34N 46°16' E 030°45'1414.0
2016-Jun-24 12:33N 46°03' E 030°51'1414.1
2016-Jun-24 11:33N 45°49' E 030°56'1414.2
2016-Jun-24 10:33N 45°35' E 030°58'1414.2
2016-Jun-24 09:33N 45°21' E 031°01'1414.1
2016-Jun-24 08:33N 45°07' E 031°04'1414.1
2016-Jun-24 07:34N 44°53' E 031°07'4314.1
2016-Jun-24 04:33N 44°11' E 031°15'1414.3
2016-Jun-24 03:33N 43°57' E 031°18'1614.3
2016-Jun-24 02:25N 43°41' E 031°21'1214.1
2016-Jun-24 01:33N 43°29' E 031°24'  
2016-Jun-21 20:31N 45°29' E 030°59'5310.7
2016-Jun-21 15:30N 46°21' E 030°39'0 0.0
2016-Jun-21 14:33N 46°21' E 030°39'0 0.0
2016-Jun-21 13:33N 46°21' E 030°39'0 0.0
2016-Jun-21 12:33N 46°21' E 030°39'0 0.0
2016-Jun-21 11:21N 46°21' E 030°39'0 0.0
2016-Jun-21 10:33N 46°21' E 030°39'0 0.0
2016-Jun-21 09:30N 46°21' E 030°39'0 0.0
2016-Jun-21 08:33N 46°21' E 030°39'0 0.0
2016-Jun-21 07:33N 46°21' E 030°39'0 0.0
2016-Jun-21 04:24N 46°21' E 030°39'0 0.0
2016-Jun-21 03:33N 46°21' E 030°39'0 0.0
2016-Jun-21 02:33N 46°21' E 030°39'0 0.0
2016-Jun-21 01:33N 46°21' E 030°39'0 0.0
2016-Jun-21 00:30N 46°21' E 030°39'0 0.0
2016-Jun-20 23:33N 46°21' E 030°39'0 0.0
2016-Jun-20 22:30N 46°21' E 030°39'0 0.0
2016-Jun-20 21:30N 46°21' E 030°39'0 0.0
2016-Jun-20 20:33N 46°21' E 030°39'0 0.0
2016-Jun-20 19:30N 46°21' E 030°39'0 0.0
2016-Jun-20 18:33N 46°21' E 030°39'0 0.0
2016-Jun-20 17:33N 46°21' E 030°39'0 0.0
2016-Jun-20 16:33N 46°21' E 030°39'0 0.3
2016-Jun-20 15:33N 46°20' E 030°39'4 4.3
2016-Jun-20 14:34N 46°19' E 030°45'4 4.1
2016-Jun-20 13:33N 46°14' E 030°44'0 0.0
2016-Jun-20 12:32N 46°14' E 030°44'0 0.0
2016-Jun-20 11:33N 46°14' E 030°44'0 0.0
2016-Jun-20 10:33N 46°14' E 030°44'0 0.0
2016-Jun-20 09:33N 46°14' E 030°44'0 0.0
2016-Jun-20 08:31N 46°14' E 030°44'3 2.8
2016-Jun-20 07:33N 46°12' E 030°46'1413.5
2016-Jun-20 06:33N 45°60' E 030°53'1413.7
2016-Jun-20 05:33N 45°46' E 030°57'1413.9
2016-Jun-20 04:33N 45°32' E 031°01'  
2016-Jun-17 22:05N 45°45' E 030°56'713.7
2016-Jun-17 21:33N 45°52' E 030°54'1413.8
2016-Jun-17 20:33N 46°06' E 030°49'1313.4
2016-Jun-17 19:33N 46°18' E 030°43'  

Dump ship's entire track history